createdAt,value
2023-01-24T00:06:29.574Z,25.80
2023-01-24T00:16:38.438Z,25.70
2023-01-24T00:26:45.227Z,25.60
2023-01-24T00:36:53.801Z,25.40
2023-01-24T00:47:00.752Z,25.30
2023-01-24T00:57:09.773Z,25.20
2023-01-24T01:07:17.142Z,25.10
2023-01-24T01:17:26.112Z,25.00
2023-01-24T01:27:32.842Z,25.10
2023-01-24T01:37:42.135Z,25.20
2023-01-24T01:47:48.966Z,25.30
2023-01-24T01:57:58.423Z,25.50
2023-01-24T02:08:09.964Z,25.70
2023-01-24T02:18:18.960Z,25.90
2023-01-24T02:28:28.541Z,26.00
2023-01-24T02:38:35.774Z,26.00
2023-01-24T02:48:44.633Z,25.90
2023-01-24T02:58:52.027Z,25.90
2023-01-24T03:09:00.789Z,26.00
2023-01-24T03:19:32.521Z,26.00
2023-01-24T03:29:59.419Z,25.90
2023-01-24T03:40:13.143Z,26.00
2023-01-24T03:50:38.430Z,25.90
2023-01-24T04:00:48.350Z,26.00
2023-01-24T04:11:18.911Z,26.00
2023-01-24T04:21:30.259Z,26.10
2023-01-24T04:31:40.121Z,26.10
2023-01-24T04:42:08.101Z,26.30
2023-01-24T04:52:17.617Z,26.20
2023-01-24T05:02:37.384Z,26.40
2023-01-24T05:12:46.921Z,26.60
2023-01-24T05:23:01.022Z,26.70
2023-01-24T05:33:13.870Z,26.80
2023-01-24T05:43:20.840Z,26.90
2023-01-24T05:53:29.607Z,26.80
2023-01-24T06:03:38.123Z,26.80
2023-01-24T06:13:47.050Z,26.70
2023-01-24T06:23:55.242Z,26.70
2023-01-24T06:34:23.782Z,26.70
2023-01-24T06:44:31.175Z,26.60
2023-01-24T06:54:40.254Z,26.70
2023-01-24T07:04:47.113Z,26.60
2023-01-24T07:14:56.470Z,26.60
2023-01-24T07:25:05.274Z,26.60
2023-01-24T07:35:14.218Z,26.60
2023-01-24T07:45:22.702Z,26.60
2023-01-24T07:55:31.519Z,26.70
2023-01-24T08:05:40.864Z,26.70
2023-01-24T08:15:49.343Z,26.70
2023-01-24T08:25:57.059Z,26.80
2023-01-24T08:36:05.479Z,26.80
2023-01-24T08:46:12.258Z,26.80
2023-01-24T08:56:20.691Z,26.80
2023-01-24T09:06:28.154Z,26.80
2023-01-24T09:16:36.697Z,26.80
2023-01-24T09:26:45.936Z,26.90
2023-01-24T09:36:54.597Z,26.90
2023-01-24T09:47:04.692Z,26.90
2023-01-24T09:57:21.315Z,26.90
2023-01-24T10:07:51.806Z,26.90
2023-01-24T10:18:19.606Z,27.00
2023-01-24T10:28:32.032Z,27.00
2023-01-24T10:38:40.512Z,27.00
2023-01-24T10:48:49.133Z,27.00
2023-01-24T10:59:03.319Z,27.00
2023-01-24T11:09:39.765Z,27.10
2023-01-24T11:19:48.599Z,27.10
2023-01-24T11:30:11.476Z,27.10
2023-01-24T11:40:31.751Z,27.10
2023-01-24T11:50:46.651Z,27.10
2023-01-24T12:01:00.279Z,27.20
2023-01-24T12:11:29.806Z,27.20
2023-01-24T12:21:43.038Z,27.20
2023-01-24T12:31:55.753Z,27.20
2023-01-24T12:42:15.917Z,27.20
2023-01-24T12:52:27.698Z,27.20
2023-01-24T13:02:56.298Z,27.20
2023-01-24T13:13:05.087Z,27.30
2023-01-24T13:23:37.566Z,27.30
2023-01-24T13:33:51.272Z,27.30
2023-01-24T13:44:04.353Z,27.30
2023-01-24T13:54:21.942Z,27.30
2023-01-24T14:04:44.686Z,27.30
2023-01-24T14:15:06.270Z,27.30
2023-01-24T14:25:44.603Z,27.40
2023-01-24T14:36:07.987Z,27.40
2023-01-24T14:46:23.872Z,27.40
2023-01-24T14:56:30.622Z,27.40
2023-01-24T15:06:39.737Z,27.40
2023-01-24T15:16:53.125Z,27.40
2023-01-24T15:27:02.772Z,27.40
2023-01-24T15:37:16.249Z,27.40
2023-01-24T15:47:42.861Z,27.30
2023-01-24T15:57:49.674Z,27.20
2023-01-24T16:07:58.311Z,27.20
2023-01-24T16:18:05.154Z,27.20
2023-01-24T16:28:22.886Z,27.20
2023-01-24T16:38:30.286Z,27.20
2023-01-24T16:48:38.723Z,27.30
2023-01-24T16:58:45.496Z,27.20
2023-01-24T17:08:57.801Z,27.10
2023-01-24T17:19:05.537Z,27.00
2023-01-24T17:29:16.527Z,26.90
2023-01-24T17:39:24.015Z,26.80
2023-01-24T17:49:32.385Z,26.80
2023-01-24T17:59:39.130Z,26.80
2023-01-24T18:09:47.562Z,26.70
2023-01-24T18:19:54.405Z,26.60
2023-01-24T18:30:02.941Z,26.70
2023-01-24T18:40:11.468Z,26.70
2023-01-24T18:50:20.370Z,26.80
2023-01-24T19:10:35.665Z,26.70
2023-01-24T19:20:42.419Z,26.70
2023-01-24T19:30:55.010Z,26.60
2023-01-24T19:41:06.603Z,26.60
2023-01-24T19:51:15.554Z,26.50
2023-01-24T20:01:23.590Z,26.50
2023-01-24T20:11:32.120Z,26.50
2023-01-24T20:21:39.514Z,26.40
2023-01-24T20:31:48.676Z,26.50
2023-01-24T20:41:56.182Z,26.50
2023-01-24T20:52:04.605Z,26.50
2023-01-24T21:02:12.429Z,26.40
2023-01-24T21:12:21.650Z,26.40
2023-01-24T21:22:28.491Z,26.30
2023-01-24T21:32:37.041Z,26.30
2023-01-24T21:42:44.278Z,26.20
2023-01-24T21:52:55.587Z,26.20
2023-01-24T22:03:15.595Z,26.10
2023-01-24T22:13:24.076Z,26.10
2023-01-24T22:23:34.024Z,26.00
2023-01-24T22:33:43.497Z,26.00
2023-01-24T22:43:50.825Z,25.90
2023-01-24T22:53:59.248Z,25.90
2023-01-24T23:04:09.474Z,25.80
2023-01-24T23:14:36.114Z,25.80
2023-01-24T23:24:42.991Z,25.70
2023-01-24T23:34:57.299Z,25.70
2023-01-24T23:45:04.562Z,25.70
2023-01-24T23:55:13.510Z,25.60
